Time;durP1;ratioP1;P1;durP2;ratioP2;P2;SDS_P1;SDS_P2;PMS_P1;PMS_P2;Temp;Humidity;BMP_temperature;BMP_pressure;BME280_temperature;BME280_humidity;BME280_pressure;Samples;Min_cycle;Max_cycle;Signal;HPM_P1;HPM_P2
2023/09/12 00:00:50;;;;;;;18.40;17.60;;;;;;;-141.02;93.64;41108.59;5136331;27;20277;-59
2023/09/12 00:03:21;;;;;;;18.20;17.40;;;;;;;-141.02;94.15;41089.41;5136009;27;20200;-58
2023/09/12 00:05:52;;;;;;;18.48;17.67;;;;;;;-141.02;95.50;41062.56;5135819;27;20232;-58
2023/09/12 00:08:19;;;;;;;18.60;17.80;;;;;;;-141.02;97.02;40999.25;5135857;27;20192;-59
2023/09/12 00:10:46;;;;;;;18.50;17.60;;;;;;;-141.02;98.42;40934.00;5136143;27;20656;-59
2023/09/12 00:13:13;;;;;;;17.88;17.08;;;;;;;-141.02;99.43;40840.00;5135813;27;20189;-58
2023/09/12 00:15:41;;;;;;;18.25;17.45;;;;;;;-141.02;100.00;40755.56;5136007;27;20246;-59
2023/09/12 00:18:08;;;;;;;17.75;16.95;;;;;;;-141.02;100.00;40663.47;5135694;27;20279;-59
2023/09/12 00:20:36;;;;;;;17.50;16.70;;;;;;;-141.02;99.96;40671.16;5135656;27;20287;-58
2023/09/12 00:23:04;;;;;;;17.92;17.13;;;;;;;-141.02;100.00;40663.47;5135892;27;20283;-58
2023/09/12 00:25:31;;;;;;;18.55;17.65;;;;;;;-141.02;100.00;40651.97;5135979;27;20199;-59
2023/09/12 00:27:58;;;;;;;17.83;17.02;;;;;;;-141.02;100.00;40619.34;5135519;27;20196;-59
2023/09/12 00:30:25;;;;;;;17.08;16.38;;;;;;;-141.02;100.00;40513.84;5135812;27;20562;-58
2023/09/12 00:32:53;;;;;;;17.60;16.83;;;;;;;-141.02;100.00;40444.78;5135496;27;20235;-59
2023/09/12 00:35:20;;;;;;;17.90;17.10;;;;;;;-141.02;100.00;40291.31;5135566;27;20311;-59
2023/09/12 00:37:47;;;;;;;17.20;16.50;;;;;;;-141.02;100.00;40095.66;5135651;27;20218;-58
2023/09/12 00:40:14;;;;;;;16.92;16.23;;;;;;;-141.02;100.00;39957.53;5135240;27;20200;-58
2023/09/12 00:42:41;;;;;;;17.10;16.40;;;;;;;-141.02;100.00;39932.59;5135211;27;20245;-58
2023/09/12 00:45:09;;;;;;;16.85;16.15;;;;;;;-141.02;100.00;39957.53;5135211;27;20672;-58
2023/09/12 00:47:37;;;;;;;16.77;16.08;;;;;;;-141.02;100.00;39936.44;5135475;27;20219;-58
2023/09/12 00:50:07;;;;;;;16.95;16.25;;;;;;;-141.02;100.00;39969.06;5135105;27;20750;-58
2023/09/12 00:52:35;;;;;;;16.92;16.23;;;;;;;-141.02;100.00;39938.38;5135263;27;20638;-59
2023/09/12 00:55:03;;;;;;;16.90;16.20;;;;;;;-141.02;100.00;39999.75;5135250;27;20275;-58
2023/09/12 00:57:33;;;;;;;16.70;16.00;;;;;;;-141.02;100.00;40003.59;5134996;27;20188;-59
2023/09/12 01:00:02;;;;;;;16.58;15.88;;;;;;;-141.02;100.00;40009.34;5135197;27;20628;-58
2023/09/12 01:02:29;;;;;;;16.65;15.95;;;;;;;-141.02;100.00;39976.72;5135156;27;20192;-59
2023/09/12 01:04:56;;;;;;;17.02;16.33;;;;;;;-141.02;100.00;39980.56;5134628;27;20318;-59
2023/09/12 01:07:24;;;;;;;16.77;16.08;;;;;;;-141.02;100.00;39995.91;5133993;27;20200;-59
2023/09/12 01:09:51;;;;;;;17.23;16.52;;;;;;;-141.02;100.00;40011.25;5134939;27;20220;-58
2023/09/12 01:12:18;;;;;;;17.60;16.90;;;;;;;-141.02;100.00;39961.38;5134645;27;20753;-58
2023/09/12 01:14:45;;;;;;;16.60;15.90;;;;;;;-141.02;100.00;39903.84;5134804;27;20311;-58
2023/09/12 01:17:12;;;;;;;16.50;15.80;;;;;;;-141.02;100.00;39830.94;5134561;27;20291;-59
2023/09/12 01:19:39;;;;;;;16.13;15.52;;;;;;;-141.02;100.00;39662.16;5134765;27;20188;-59
2023/09/12 01:22:31;;;;;;;15.68;15.07;;;;;;;-141.02;100.00;39606.56;5135118;27;20283;-58
2023/09/12 01:25:35;;;;;;;15.52;14.93;;;;;;;-141.02;100.00;39687.09;5134682;27;20673;-59
2023/09/12 01:28:09;;;;;;;15.82;15.23;;;;;;;-141.02;100.00;39673.69;5134630;27;20197;-58
2023/09/12 01:30:36;;;;;;;16.40;15.80;;;;;;;-141.02;100.00;39690.94;5134420;27;20739;-58
2023/09/12 01:33:04;;;;;;;16.50;15.90;;;;;;;-141.02;100.00;39639.16;5134166;27;20663;-58
2023/09/12 01:35:31;;;;;;;16.70;16.00;;;;;;;-141.02;100.00;39639.16;5134416;27;20227;-58
2023/09/12 01:37:58;;;;;;;16.33;15.73;;;;;;;-141.02;100.00;39666.00;5134483;27;20275;-58
2023/09/12 01:40:44;;;;;;;16.88;16.17;;;;;;;-141.02;100.00;39746.56;5134052;27;20194;-58
2023/09/12 01:43:16;;;;;;;17.65;16.95;;;;;;;-141.02;100.00;39865.47;5134299;27;20189;-58
2023/09/12 01:45:45;;;;;;;18.20;17.40;;;;;;;-141.02;100.00;39903.84;5134392;27;20273;-59
2023/09/12 01:48:13;;;;;;;18.42;17.63;;;;;;;-141.02;100.00;39930.69;5134233;27;20207;-59
2023/09/12 01:50:40;;;;;;;17.50;16.80;;;;;;;-141.02;100.00;39949.88;5133882;27;20645;-58
2023/09/12 01:53:08;;;;;;;16.88;16.17;;;;;;;-141.02;100.00;39938.38;5134146;27;20274;-67
2023/09/12 01:55:36;;;;;;;17.73;16.95;;;;;;;-141.02;100.00;39965.22;5133580;27;20228;-58
2023/09/12 01:58:04;;;;;;;18.13;17.33;;;;;;;-141.02;100.00;39930.69;5134102;27;20262;-58
2023/09/12 02:00:34;;;;;;;17.40;16.70;;;;;;;-141.02;100.00;39984.41;5134047;27;20291;-58
2023/09/12 02:03:02;;;;;;;17.88;17.08;;;;;;;-141.02;100.00;39969.06;5133840;27;20256;-58
2023/09/12 02:05:29;;;;;;;17.80;17.00;;;;;;;-141.02;100.00;39974.81;5133500;27;20232;-58
2023/09/12 02:07:56;;;;;;;17.55;16.85;;;;;;;-141.02;100.00;40018.94;5133583;27;20279;-58
2023/09/12 02:10:23;;;;;;;17.80;17.10;;;;;;;-141.02;100.00;40018.94;5133874;27;20275;-58
2023/09/12 02:12:50;;;;;;;18.45;17.65;;;;;;;-141.02;100.00;40034.28;5133865;27;20192;-58
2023/09/12 02:15:17;;;;;;;18.00;17.20;;;;;;;-141.02;100.00;40068.78;5133387;27;20719;-58
2023/09/12 02:17:45;;;;;;;17.88;17.08;;;;;;;-141.02;100.00;40086.06;5133399;27;20199;-58
2023/09/12 02:20:12;;;;;;;18.50;17.70;;;;;;;-141.02;100.00;40074.56;5133516;27;20754;-59
2023/09/12 02:22:39;;;;;;;18.30;17.50;;;;;;;-141.02;100.00;40093.72;5133682;27;20274;-58
2023/09/12 02:25:08;;;;;;;17.50;16.80;;;;;;;-141.02;100.00;40076.47;5133576;27;20287;-58
2023/09/12 02:27:35;;;;;;;18.00;17.20;;;;;;;-141.02;100.00;40064.97;5133608;27;20193;-58
2023/09/12 02:30:02;;;;;;;17.85;17.05;;;;;;;-141.02;100.00;40038.09;5133546;27;20192;-58
2023/09/12 02:32:30;;;;;;;17.40;16.70;;;;;;;-141.02;100.00;40049.63;5133241;27;20193;-59
2023/09/12 02:34:58;;;;;;;17.40;16.70;;;;;;;-141.02;100.00;40026.59;5133414;27;20310;-59
2023/09/12 02:37:25;;;;;;;17.20;16.50;;;;;;;-141.02;100.00;40003.59;5133420;27;20199;-59
2023/09/12 02:39:52;;;;;;;16.98;16.27;;;;;;;-141.02;100.00;40015.09;5133457;27;20275;-58
2023/09/12 02:42:19;;;;;;;17.00;16.30;;;;;;;-141.02;100.00;40013.16;5133026;27;20231;-58
2023/09/12 02:44:47;;;;;;;17.73;16.95;;;;;;;-141.02;100.00;40011.25;5133093;27;20241;-58
2023/09/12 02:47:14;;;;;;;17.50;16.80;;;;;;;-141.02;100.00;40015.09;5132921;27;20192;-58
2023/09/12 02:49:41;;;;;;;17.08;16.38;;;;;;;-141.02;100.00;40022.75;5133302;27;20228;-59
2023/09/12 02:52:09;;;;;;;16.80;16.10;;;;;;;-141.02;100.00;39972.88;5133004;27;20199;-59
2023/09/12 02:54:36;;;;;;;16.60;15.90;;;;;;;-141.02;100.00;39967.13;5133204;27;20300;-58
2023/09/12 02:57:04;;;;;;;16.70;16.00;;;;;;;-141.02;100.00;39946.03;5133256;27;20580;-59
2023/09/12 02:59:31;;;;;;;17.13;16.42;;;;;;;-141.02;100.00;39915.34;5132874;27;20670;-58
2023/09/12 03:01:58;;;;;;;16.48;15.88;;;;;;;-141.02;100.00;39961.38;5133223;27;20207;-58
2023/09/12 03:04:26;;;;;;;16.40;15.80;;;;;;;-141.02;100.00;39957.53;5132878;27;20289;-58
2023/09/12 03:06:53;;;;;;;15.90;15.30;;;;;;;-141.02;100.00;39978.66;5132896;27;20271;-58
2023/09/12 03:09:22;;;;;;;16.90;16.20;;;;;;;-141.02;100.00;39980.56;5133109;27;20228;-58
2023/09/12 03:11:50;;;;;;;17.00;16.30;;;;;;;-141.02;100.00;39982.47;5133064;27;20196;-58
2023/09/12 03:14:17;;;;;;;16.90;16.20;;;;;;;-141.02;100.00;39955.63;5132805;27;20194;-58
2023/09/12 03:16:43;;;;;;;16.65;16.05;;;;;;;-141.02;100.00;39884.66;5132665;27;20234;-58
2023/09/12 03:19:10;;;;;;;16.50;15.90;;;;;;;-141.02;100.00;39915.34;5132711;27;20198;-58
2023/09/12 03:21:38;;;;;;;16.50;15.90;;;;;;;-141.02;100.00;39903.84;5132691;27;20253;-58
2023/09/12 03:24:06;;;;;;;16.35;15.75;;;;;;;-141.02;100.00;39873.16;5132679;27;20253;-59
2023/09/12 03:26:36;;;;;;;16.70;16.10;;;;;;;-141.02;100.00;39829.03;5132984;27;20196;-58
2023/09/12 03:29:04;;;;;;;16.92;16.30;;;;;;;-141.02;100.00;39804.09;5132831;27;20288;-59
2023/09/12 03:31:31;;;;;;;16.38;15.77;;;;;;;-141.02;100.00;39719.72;5135032;27;20200;-58
2023/09/12 03:33:58;;;;;;;15.73;15.13;;;;;;;-141.02;100.00;39652.59;5136886;27;20381;-58
2023/09/12 03:36:25;;;;;;;14.90;14.40;;;;;;;-141.02;100.00;39535.59;5136444;27;20716;-58
2023/09/12 03:38:51;;;;;;;14.70;14.20;;;;;;;-141.02;100.00;39472.31;5136833;27;20570;-58
2023/09/12 03:41:18;;;;;;;14.63;14.13;;;;;;;-141.02;100.00;39316.97;5136663;27;20286;-58
2023/09/12 03:43:47;;;;;;;14.35;13.85;;;;;;;-141.02;100.00;39286.28;5136374;27;20283;-58
2023/09/12 03:46:14;;;;;;;14.02;13.52;;;;;;;-141.02;100.00;39292.03;5136342;27;20193;-58
2023/09/12 03:48:41;;;;;;;14.00;13.55;;;;;;;-141.02;100.00;39305.44;5136293;27;20631;-58
2023/09/12 03:51:08;;;;;;;14.40;13.90;;;;;;;-141.02;100.00;39343.81;5136598;27;20279;-58
2023/09/12 03:53:35;;;;;;;14.30;13.80;;;;;;;-141.02;100.00;39424.34;5136451;27;20292;-58
2023/09/12 03:56:02;;;;;;;14.15;13.65;;;;;;;-141.02;100.00;39516.41;5136410;27;20284;-58
2023/09/12 03:58:29;;;;;;;15.20;14.70;;;;;;;-141.02;100.00;39581.63;5136069;27;20200;-58
2023/09/12 04:00:57;;;;;;;14.75;14.25;;;;;;;-141.02;100.00;39750.41;5136178;27;20284;-58
2023/09/12 04:03:24;;;;;;;14.85;14.35;;;;;;;-141.02;100.00;39758.06;5136311;27;20203;-60
2023/09/12 04:05:52;;;;;;;15.13;14.63;;;;;;;-141.02;100.00;39878.91;5135759;27;20267;-58
2023/09/12 04:08:19;;;;;;;15.38;14.77;;;;;;;-141.02;100.00;39869.31;5136288;27;20196;-58
2023/09/12 04:10:46;;;;;;;15.32;14.73;;;;;;;-141.02;100.00;39936.44;5136142;27;20220;-58
2023/09/12 04:13:13;;;;;;;15.10;14.60;;;;;;;-141.02;100.00;39949.88;5136264;27;20206;-59
2023/09/12 04:15:40;;;;;;;15.20;14.70;;;;;;;-141.02;100.00;39938.38;5135709;27;20220;-58
2023/09/12 04:18:08;;;;;;;14.55;14.05;;;;;;;-141.02;100.00;39965.22;5136098;27;20633;-58
2023/09/12 04:20:35;;;;;;;14.35;13.85;;;;;;;-141.02;100.00;39980.56;5135646;27;20694;-58
2023/09/12 04:23:03;;;;;;;13.98;13.52;;;;;;;-141.02;100.00;40015.09;5135637;27;20231;-58
2023/09/12 04:25:30;;;;;;;14.50;14.00;;;;;;;-141.02;100.00;40041.94;5135893;27;20200;-58
2023/09/12 04:27:57;;;;;;;14.55;14.05;;;;;;;-141.02;100.00;40072.63;5135512;27;20287;-58
2023/09/12 04:30:24;;;;;;;14.70;14.20;;;;;;;-141.02;100.00;40084.16;5135503;27;20207;-58
2023/09/12 04:32:51;;;;;;;15.20;14.70;;;;;;;-141.02;100.00;40111.00;5135469;27;20196;-58
2023/09/12 04:35:20;;;;;;;14.95;14.45;;;;;;;-141.02;100.00;40199.22;5135293;27;20232;-58
2023/09/12 04:37:47;;;;;;;15.50;14.90;;;;;;;-141.02;100.00;40216.50;5135356;27;20197;-58
2023/09/12 04:40:15;;;;;;;15.80;15.20;;;;;;;-141.02;100.00;40260.63;5135262;27;20199;-58
2023/09/12 04:42:42;;;;;;;15.90;15.30;;;;;;;-141.02;100.00;40314.34;5135407;27;20223;-58
2023/09/12 04:45:10;;;;;;;15.65;15.05;;;;;;;-141.02;100.00;40343.09;5135499;27;20275;-58
2023/09/12 04:47:37;;;;;;;16.52;15.82;;;;;;;-141.02;100.00;40429.44;5135474;27;20196;-58
2023/09/12 04:50:04;;;;;;;16.67;15.98;;;;;;;-141.02;100.00;40448.63;5135398;27;20227;-58
2023/09/12 04:52:33;;;;;;;16.25;15.65;;;;;;;-141.02;100.00;40490.81;5135028;27;20232;-58
2023/09/12 04:55:00;;;;;;;16.83;16.13;;;;;;;-141.02;100.00;40517.69;5135053;27;20236;-58
2023/09/12 04:57:30;;;;;;;16.83;16.13;;;;;;;-141.02;100.00;40483.16;5134888;27;20706;-58
2023/09/12 04:59:58;;;;;;;16.80;16.10;;;;;;;-141.02;100.00;40463.97;5135636;27;20551;-58
2023/09/12 05:02:25;;;;;;;16.83;16.15;;;;;;;-141.02;100.00;40483.16;5134862;27;20223;-59
2023/09/12 05:04:52;;;;;;;17.08;16.38;;;;;;;-141.02;100.00;40540.69;5134805;27;20228;-59
2023/09/12 05:07:19;;;;;;;17.38;16.67;;;;;;;-141.02;100.00;40517.69;5134865;27;20242;-58
2023/09/12 05:09:47;;;;;;;17.15;16.45;;;;;;;-141.02;100.00;40534.94;5134657;27;20659;-58
2023/09/12 05:12:14;;;;;;;16.88;16.17;;;;;;;-141.02;100.00;40492.75;5134653;27;20283;-58
2023/09/12 05:14:41;;;;;;;17.33;16.63;;;;;;;-141.02;100.00;40544.53;5134617;27;20237;-58
2023/09/12 05:17:08;;;;;;;17.10;16.40;;;;;;;-141.02;100.00;40577.16;5134843;27;20311;-58
2023/09/12 05:19:35;;;;;;;17.63;16.92;;;;;;;-141.02;100.00;40615.53;5134941;27;20204;-58
2023/09/12 05:22:02;;;;;;;17.98;17.27;;;;;;;-141.02;98.61;40613.59;5134420;27;20666;-58
2023/09/12 05:24:29;;;;;;;18.40;17.60;;;;;;;-141.02;100.00;40623.19;5134456;27;20280;-58
2023/09/12 05:26:57;;;;;;;18.30;17.55;;;;;;;-141.02;99.12;40632.78;5134323;27;20577;-59
2023/09/12 05:29:24;;;;;;;17.98;17.27;;;;;;;-141.02;98.94;40659.66;5134718;27;20280;-58
2023/09/12 05:31:51;;;;;;;18.00;17.30;;;;;;;-141.02;97.85;40676.91;5134250;27;20193;-59
2023/09/12 05:34:18;;;;;;;18.10;17.40;;;;;;;-141.02;95.87;40694.19;5134228;27;20279;-58
2023/09/12 05:36:45;;;;;;;18.40;17.60;;;;;;;-141.02;94.95;40673.06;5134126;27;20319;-58
2023/09/12 05:39:13;;;;;;;18.23;17.42;;;;;;;-141.02;94.82;40705.69;5134071;27;20188;-58
2023/09/12 05:41:40;;;;;;;18.30;17.50;;;;;;;-141.02;94.99;40701.84;5134453;27;20261;-59
2023/09/12 05:44:09;;;;;;;17.13;16.42;;;;;;;-141.02;94.74;40705.69;5134348;27;20249;-58
2023/09/12 05:46:36;;;;;;;16.92;16.23;;;;;;;-141.02;94.90;40732.56;5133966;27;20188;-58
2023/09/12 05:49:03;;;;;;;17.15;16.45;;;;;;;-141.02;93.37;40778.59;5134318;27;20218;-58
2023/09/12 05:51:31;;;;;;;17.02;16.33;;;;;;;-141.02;93.39;40778.59;5134181;27;20279;-58
2023/09/12 05:53:58;;;;;;;17.35;16.58;;;;;;;-141.02;93.26;40761.31;5133595;27;20253;-58
2023/09/12 05:56:25;;;;;;;17.17;16.38;;;;;;;-141.02;94.00;40767.09;5134319;27;20311;-58
2023/09/12 05:58:52;;;;;;;16.90;16.20;;;;;;;-141.02;92.75;40813.13;5133787;27;20279;-58
2023/09/12 06:01:20;;;;;;;17.30;16.55;;;;;;;-141.02;93.27;40793.94;5133820;27;20288;-58
2023/09/12 06:03:47;;;;;;;17.42;16.63;;;;;;;-141.02;93.07;40805.47;5133991;27;20279;-59
2023/09/12 06:06:15;;;;;;;17.02;16.33;;;;;;;-141.02;93.30;40805.47;5133652;27;20683;-58
2023/09/12 06:08:42;;;;;;;17.30;16.58;;;;;;;-141.02;93.24;40818.88;5133525;27;20287;-59
2023/09/12 06:11:09;;;;;;;17.15;16.45;;;;;;;-141.02;93.36;40840.00;5133584;27;20199;-59
2023/09/12 06:13:37;;;;;;;17.60;16.80;;;;;;;-141.02;92.43;40891.78;5133869;27;20286;-58
2023/09/12 06:16:05;;;;;;;17.42;16.73;;;;;;;-141.02;93.97;40853.41;5133743;27;20258;-59
2023/09/12 06:18:34;;;;;;;17.48;16.77;;;;;;;-141.02;93.25;40830.41;5133729;27;20224;-58
2023/09/12 06:21:04;;;;;;;18.40;17.60;;;;;;;-141.02;92.06;40843.81;5133692;27;20279;-58
2023/09/12 06:23:31;;;;;;;18.48;17.67;;;;;;;-141.02;90.60;40863.00;5133704;27;20198;-58
2023/09/12 06:25:58;;;;;;;18.83;18.02;;;;;;;-141.02;89.94;40870.69;5133332;27;20723;-59
2023/09/12 06:28:29;;;;;;;18.58;17.77;;;;;;;-141.02;90.09;40882.19;5133304;27;20643;-59
2023/09/12 06:30:57;;;;;;;18.23;17.52;;;;;;;-141.02;89.59;40886.03;5133202;27;20196;-59
2023/09/12 06:33:24;;;;;;;18.80;18.00;;;;;;;-141.02;87.65;40916.75;5133501;27;20193;-58
2023/09/12 06:35:53;;;;;;;18.83;18.02;;;;;;;-141.02;87.74;40909.06;5133365;27;20192;-58
2023/09/12 06:38:21;;;;;;;19.63;18.73;;;;;;;-141.02;88.20;40886.03;5133111;27;20196;-58
2023/09/12 06:40:48;;;;;;;19.20;18.40;;;;;;;-141.02;85.22;40947.44;5133509;27;20227;-58
2023/09/12 06:43:15;;;;;;;18.38;17.58;;;;;;;-141.02;86.70;40928.25;5133030;27;20843;-59
2023/09/12 06:45:42;;;;;;;19.17;18.38;;;;;;;-141.02;86.74;40976.22;5133062;27;20282;-59
2023/09/12 06:48:10;;;;;;;19.00;18.20;;;;;;;-141.02;85.91;40987.72;5133308;27;20196;-58
2023/09/12 06:50:38;;;;;;;18.77;17.98;;;;;;;-141.02;84.95;40989.66;5133356;27;20279;-65
2023/09/12 06:53:07;;;;;;;18.85;18.05;;;;;;;-141.02;86.02;40955.09;5132978;27;20681;-58
2023/09/12 06:55:34;;;;;;;18.55;17.75;;;;;;;-141.02;85.70;40974.28;5132885;27;20200;-58
2023/09/12 06:58:01;;;;;;;18.58;17.77;;;;;;;-141.02;84.22;40966.63;5132859;27;20323;-58
2023/09/12 07:00:28;;;;;;;18.60;17.80;;;;;;;-141.02;84.92;40995.41;5132920;27;20245;-58
2023/09/12 07:02:55;;;;;;;18.90;18.08;;;;;;;-141.02;84.16;40981.97;5133475;27;20295;-58
2023/09/12 07:05:22;;;;;;;19.65;18.75;;;;;;;-141.02;82.43;41003.06;5132953;27;20232;-59
2023/09/12 07:07:49;;;;;;;19.52;18.63;;;;;;;-141.02;82.08;41008.84;5137469;27;20224;-59
2023/09/12 07:10:18;;;;;;;19.23;18.33;;;;;;;-141.02;80.26;41051.03;5137455;27;20188;-59
2023/09/12 07:12:45;;;;;;;19.67;18.77;;;;;;;-141.02;80.34;41022.25;5137595;27;20279;-59
2023/09/12 07:15:12;;;;;;;19.75;18.75;;;;;;;-141.02;78.55;41020.34;5137289;27;20279;-59
2023/09/12 07:17:39;;;;;;;19.77;18.77;;;;;;;-141.02;76.05;41118.19;5136829;27;20220;-58
2023/09/12 07:20:11;;;;;;;20.00;19.00;;;;;;;-141.02;76.23;41196.88;5137248;27;20275;-58
2023/09/12 07:22:39;;;;;;;19.70;18.70;;;;;;;-141.02;75.23;41277.47;5136922;27;20185;-58
2023/09/12 07:25:09;;;;;;;19.63;18.63;;;;;;;-141.02;73.83;41336.94;5136672;27;20193;-59
2023/09/12 07:27:37;;;;;;;20.17;19.17;;;;;;;-141.02;72.52;41478.94;5136733;27;20235;-59
2023/09/12 07:30:05;;;;;;;19.60;18.60;;;;;;;-141.02;72.36;41507.72;5136959;27;20188;-59
2023/09/12 07:32:32;;;;;;;19.58;18.58;;;;;;;-141.02;70.67;41561.47;5137124;27;20583;-59
2023/09/12 07:34:59;;;;;;;18.70;17.80;;;;;;;-141.02;70.70;41596.00;5136877;27;20219;-59
2023/09/12 07:37:26;;;;;;;18.48;17.58;;;;;;;-141.02;69.30;41592.16;5136406;27;20224;-59
2023/09/12 07:39:53;;;;;;;18.00;17.10;;;;;;;-141.02;68.12;41649.75;5136807;27;20196;-58
2023/09/12 07:42:23;;;;;;;18.92;17.92;;;;;;;-141.02;67.14;41688.13;5136763;27;20201;-59
2023/09/12 07:44:52;;;;;;;19.10;18.10;;;;;;;-141.02;66.61;41695.81;5137009;27;20188;-59
2023/09/12 07:47:19;;;;;;;18.30;17.40;;;;;;;-141.02;66.09;41774.47;5136305;27;20734;-59
2023/09/12 07:49:46;;;;;;;18.80;17.80;;;;;;;-141.02;65.10;41782.16;5136322;27;20287;-58
2023/09/12 07:52:13;;;;;;;18.75;17.75;;;;;;;-141.02;64.84;41822.47;5136290;27;20309;-58
2023/09/12 07:54:40;;;;;;;18.85;17.85;;;;;;;-141.02;63.34;41824.38;5136572;27;20320;-59
2023/09/12 07:57:07;;;;;;;18.48;17.50;;;;;;;-141.02;62.66;41868.53;5136153;27;20277;-59
2023/09/12 07:59:35;;;;;;;18.02;17.13;;;;;;;-141.02;62.93;41899.22;5136371;27;20615;-59
2023/09/12 08:02:04;;;;;;;17.77;16.98;;;;;;;-141.02;62.55;41893.47;5136128;27;20794;-60
2023/09/12 08:04:31;;;;;;;18.00;17.13;;;;;;;-141.02;60.80;41960.66;5136112;27;20228;-59
2023/09/12 08:06:58;;;;;;;17.98;17.08;;;;;;;-141.02;60.65;41962.56;5136051;27;20192;-59
2023/09/12 08:09:25;;;;;;;18.67;17.67;;;;;;;-141.02;59.80;42025.91;5135874;27;20661;-59
2023/09/12 08:11:52;;;;;;;18.65;17.67;;;;;;;-141.02;59.58;42037.41;5135874;27;20732;-59
2023/09/12 08:14:21;;;;;;;18.60;17.67;;;;;;;-141.02;59.02;42012.47;5136220;27;20219;-59
2023/09/12 08:16:48;;;;;;;18.52;17.63;;;;;;;-141.02;59.05;42068.13;5135402;27;20231;-59
2023/09/12 08:19:16;;;;;;;18.50;17.58;;;;;;;-141.02;58.68;42060.44;5136065;27;20192;-59
2023/09/12 08:21:43;;;;;;;18.38;17.48;;;;;;;-141.02;56.76;42083.47;5135937;27;20189;-59
2023/09/12 08:24:10;;;;;;;18.52;17.52;;;;;;;-141.02;56.63;42123.78;5135648;27;20657;-59
2023/09/12 08:26:37;;;;;;;18.27;17.38;;;;;;;-141.02;57.90;42156.41;5135944;27;20199;-59
2023/09/12 08:29:04;;;;;;;18.30;17.40;;;;;;;-141.02;57.25;42139.13;5135856;27;20196;-59
2023/09/12 08:31:31;;;;;;;18.35;17.45;;;;;;;-141.02;56.04;42148.75;5135814;27;20203;-59
2023/09/12 08:33:58;;;;;;;18.17;17.27;;;;;;;-141.02;55.68;42144.91;5135734;27;20245;-59
2023/09/12 08:36:26;;;;;;;18.30;17.40;;;;;;;-141.02;56.09;42160.25;5135327;27;20279;-59
2023/09/12 08:38:53;;;;;;;18.10;17.20;;;;;;;-141.02;54.82;42160.25;5135640;27;20192;-59
2023/09/12 08:41:20;;;;;;;18.05;17.15;;;;;;;-141.02;54.94;42225.50;5135627;27;20192;-59
2023/09/12 08:43:49;;;;;;;18.50;17.50;;;;;;;-141.02;55.57;42198.63;5135561;27;20192;-59
2023/09/12 08:46:17;;;;;;;18.20;17.30;;;;;;;-141.02;54.50;42225.50;5135178;27;20196;-59
2023/09/12 08:48:45;;;;;;;18.35;17.35;;;;;;;-141.02;54.60;42219.75;5135152;27;20677;-59
2023/09/12 08:51:13;;;;;;;18.23;17.23;;;;;;;-141.02;54.31;42237.03;5135059;27;20287;-59
2023/09/12 08:53:42;;;;;;;18.42;17.52;;;;;;;-141.02;52.67;42265.81;5135080;27;20680;-60
2023/09/12 08:56:10;;;;;;;18.50;17.60;;;;;;;-141.02;52.99;42286.94;5135107;27;20287;-59
2023/09/12 08:58:38;;;;;;;18.02;17.13;;;;;;;-141.02;52.45;42285.00;5135212;27;20284;-59
2023/09/12 09:01:10;;;;;;;17.90;17.00;;;;;;;-141.02;52.35;42325.31;5135288;27;20196;-59
2023/09/12 09:03:38;;;;;;;17.65;16.75;;;;;;;-141.02;53.24;42319.56;5135133;27;20192;-59
2023/09/12 09:06:06;;;;;;;17.85;16.95;;;;;;;-141.02;51.35;42313.81;5134698;27;20712;-59
2023/09/12 09:08:34;;;;;;;17.75;16.85;;;;;;;-141.02;51.26;42315.72;5134813;27;20203;-59
2023/09/12 09:11:05;;;;;;;17.95;16.95;;;;;;;-141.02;51.33;42336.84;5135090;27;20193;-59
2023/09/12 09:13:32;;;;;;;17.88;16.98;;;;;;;-141.02;51.31;42329.16;5134707;27;20650;-59
2023/09/12 09:16:13;;;;;;;17.80;16.83;;;;;;;-141.02;51.79;42338.75;5134597;27;20193;-59
2023/09/12 09:18:57;;;;;;;17.95;17.05;;;;;;;-141.02;50.67;42336.84;5134454;27;20231;-59
2023/09/12 09:21:26;;;;;;;18.02;17.13;;;;;;;-141.02;50.68;42357.94;5134555;27;20243;-59
2023/09/12 09:23:55;;;;;;;18.15;17.20;;;;;;;-141.02;49.64;42394.41;5134373;27;20197;-59
2023/09/12 09:26:24;;;;;;;18.63;17.63;;;;;;;-141.02;49.63;42394.41;5134468;27;20269;-59
2023/09/12 09:29:05;;;;;;;17.70;16.80;;;;;;;-141.02;50.59;42394.41;5133531;27;20192;-59
2023/09/12 09:31:34;;;;;;;17.58;16.67;;;;;;;-141.02;49.89;42367.56;5134375;27;20284;-60
2023/09/12 09:34:01;;;;;;;18.30;17.30;;;;;;;-141.02;48.99;42342.59;5134589;27;20197;-59
2023/09/12 09:36:28;;;;;;;17.80;16.90;;;;;;;-141.02;49.00;42398.25;5134259;27;20197;-60
2023/09/12 09:38:55;;;;;;;17.63;16.73;;;;;;;-141.02;48.94;42313.81;5134340;27;20228;-59
2023/09/12 09:41:24;;;;;;;17.63;16.73;;;;;;;-141.02;48.15;42384.81;5134123;27;20196;-59
2023/09/12 09:43:52;;;;;;;17.63;16.73;;;;;;;-141.02;48.04;42398.25;5134390;27;20275;-58
2023/09/12 09:46:20;;;;;;;17.67;16.77;;;;;;;-141.02;48.22;42475.03;5134251;27;20195;-59
2023/09/12 09:48:50;;;;;;;18.33;17.33;;;;;;;-141.02;47.73;42428.97;5133950;27;20287;-59
2023/09/12 09:51:17;;;;;;;17.73;16.83;;;;;;;-141.02;47.97;42482.72;5133874;27;20668;-59
2023/09/12 09:53:44;;;;;;;17.67;16.77;;;;;;;-141.02;48.34;42482.72;5134209;27;20188;-59
2023/09/12 09:56:12;;;;;;;17.60;16.70;;;;;;;-141.02;47.67;42509.59;5134166;27;20197;-59
2023/09/12 09:58:48;;;;;;;17.65;16.75;;;;;;;-141.02;48.04;42511.50;5133625;27;20228;-60
2023/09/12 10:01:19;;;;;;;17.85;16.95;;;;;;;-141.02;47.07;42486.56;5133699;27;20188;-59
2023/09/12 10:03:47;;;;;;;17.65;16.75;;;;;;;-141.02;48.07;42517.28;5134004;27;20196;-59
2023/09/12 10:06:16;;;;;;;17.17;16.27;;;;;;;-141.02;46.92;42565.25;5133992;27;20319;-59
2023/09/12 10:08:46;;;;;;;17.50;16.63;;;;;;;-141.02;47.63;42544.16;5133814;27;20215;-59
2023/09/12 10:11:16;;;;;;;17.33;16.42;;;;;;;-141.02;47.68;42538.38;5133881;27;20196;-59
2023/09/12 10:13:50;;;;;;;17.73;16.83;;;;;;;-141.02;47.26;42551.81;5133375;27;20203;-59
2023/09/12 10:16:18;;;;;;;17.67;16.77;;;;;;;-141.02;46.73;42517.28;5133770;27;20239;-59
2023/09/12 10:18:57;;;;;;;18.30;17.30;;;;;;;-141.02;46.12;42494.25;5133610;27;20316;-59
2023/09/12 10:21:30;;;;;;;17.52;16.63;;;;;;;-141.02;46.64;42519.19;5133716;27;20627;-60
2023/09/12 10:23:59;;;;;;;17.77;16.88;;;;;;;-141.02;45.37;42505.75;5133663;27;20181;-59
2023/09/12 10:26:27;;;;;;;17.67;16.77;;;;;;;-141.02;46.02;42521.13;5133290;27;20703;-59
2023/09/12 10:28:56;;;;;;;17.83;16.92;;;;;;;-141.02;45.60;42523.03;5133477;27;20193;-59
2023/09/12 10:31:25;;;;;;;17.73;16.83;;;;;;;-141.02;46.05;42559.50;5133506;27;20287;-60
2023/09/12 10:33:53;;;;;;;17.75;16.85;;;;;;;-141.02;46.81;42603.66;5133136;27;20659;-59
2023/09/12 10:36:21;;;;;;;17.83;16.88;;;;;;;-141.02;46.76;42655.47;5133123;27;20200;-59
2023/09/12 10:38:49;;;;;;;17.92;16.92;;;;;;;-141.02;47.02;42611.34;5133368;27;20228;-68
2023/09/12 10:41:17;;;;;;;17.30;16.40;;;;;;;-141.02;46.39;42642.03;5133151;27;20196;-59
2023/09/12 10:43:52;;;;;;;17.20;16.30;;;;;;;-141.02;46.53;42636.28;5132995;27;20196;-59
2023/09/12 10:46:21;;;;;;;17.10;16.20;;;;;;;-141.02;46.20;42607.50;5133022;27;20664;-59
2023/09/12 10:48:48;;;;;;;17.20;16.30;;;;;;;-141.02;45.97;42659.31;5133282;27;20271;-59
2023/09/12 10:51:17;;;;;;;17.48;16.58;;;;;;;-141.02;46.18;42667.00;5133249;27;20189;-60
2023/09/12 10:53:49;;;;;;;17.38;16.48;;;;;;;-141.02;46.70;42709.25;5132931;27;20287;-59
2023/09/12 10:56:19;;;;;;;17.65;16.75;;;;;;;-141.02;47.02;42697.72;5133209;27;20188;-66
2023/09/12 10:59:12;;;;;;;17.92;16.92;;;;;;;-141.02;46.71;42636.28;5133072;27;20315;-59
2023/09/12 11:01:42;;;;;;;17.77;16.77;;;;;;;-141.02;46.32;42636.28;5133487;27;20228;-60